createdAt,value
2023-04-13T00:00:48.159Z,6.93
2023-04-13T00:03:17.483Z,6.87
2023-04-13T00:05:46.402Z,6.79
2023-04-13T00:08:13.548Z,6.85
2023-04-13T00:10:43.330Z,6.84
2023-04-13T00:13:10.897Z,6.80
2023-04-13T00:15:43.450Z,6.83
2023-04-13T00:18:13.033Z,6.83
2023-04-13T00:20:46.573Z,6.81
2023-04-13T00:23:13.070Z,6.85
2023-04-13T00:25:39.548Z,6.84
2023-04-13T00:28:06.543Z,6.79
2023-04-13T00:30:33.293Z,6.78
2023-04-13T00:32:59.877Z,6.79
2023-04-13T00:35:26.696Z,6.84
2023-04-13T00:37:53.847Z,6.86
2023-04-13T00:40:20.970Z,6.89
2023-04-13T00:42:49.533Z,6.85
2023-04-13T00:45:18.014Z,6.88
2023-04-13T00:47:48.711Z,6.87
2023-04-13T00:50:20.933Z,6.85
2023-04-13T00:52:48.922Z,6.83
2023-04-13T00:55:20.842Z,6.79
2023-04-13T00:57:50.089Z,6.81
2023-04-13T01:00:17.609Z,6.80
2023-04-13T01:02:44.233Z,6.76
2023-04-13T01:05:12.539Z,6.71
2023-04-13T01:07:49.660Z,6.70
2023-04-13T01:10:19.423Z,6.73
2023-04-13T01:13:05.644Z,6.70
2023-04-13T01:15:37.835Z,6.64
2023-04-13T01:18:08.783Z,6.62
2023-04-13T01:20:42.562Z,6.66
2023-04-13T01:23:18.227Z,6.66
2023-04-13T01:26:06.679Z,6.70
2023-04-13T01:28:36.053Z,6.79
2023-04-13T01:31:05.702Z,6.79
2023-04-13T01:33:33.552Z,6.82
2023-04-13T01:36:03.222Z,6.82
2023-04-13T01:38:29.927Z,6.80
2023-04-13T01:40:57.299Z,6.81
2023-04-13T01:43:25.046Z,6.83
2023-04-13T01:46:04.216Z,6.80
2023-04-13T01:48:51.531Z,6.74
2023-04-13T01:51:31.337Z,6.78
2023-04-13T01:54:02.660Z,6.79
2023-04-13T01:56:29.536Z,6.82
2023-04-13T01:59:00.411Z,6.83
2023-04-13T02:01:27.007Z,6.81
2023-04-13T02:03:53.787Z,6.82
2023-04-13T02:06:20.887Z,6.80
2023-04-13T02:08:47.435Z,6.81
2023-04-13T02:11:13.951Z,6.78
2023-04-13T02:13:40.394Z,6.73
2023-04-13T02:16:07.287Z,6.74
2023-04-13T02:18:33.859Z,6.70
2023-04-13T02:21:11.376Z,6.65
2023-04-13T02:23:40.538Z,6.61
2023-04-13T02:26:13.035Z,6.61
2023-04-13T02:28:40.327Z,6.66
2023-04-13T02:31:07.296Z,6.70
2023-04-13T02:33:36.283Z,6.66
2023-04-13T02:36:04.013Z,6.64
2023-04-13T02:38:32.120Z,6.60
2023-04-13T02:41:00.585Z,6.61
2023-04-13T02:43:27.382Z,6.61
2023-04-13T02:45:54.015Z,6.57
2023-04-13T02:48:21.716Z,6.54
2023-04-13T02:50:48.406Z,6.56
2023-04-13T02:53:16.724Z,6.50
2023-04-13T02:55:43.339Z,6.44
2023-04-13T02:58:11.147Z,6.43
2023-04-13T03:00:38.731Z,6.44
2023-04-13T03:03:06.871Z,6.43
2023-04-13T03:05:33.833Z,6.43
2023-04-13T03:08:05.212Z,6.37
2023-04-13T03:10:31.667Z,6.38
2023-04-13T03:12:58.318Z,6.38
2023-04-13T03:15:24.847Z,6.44
2023-04-13T03:17:51.430Z,6.45
2023-04-13T03:20:22.804Z,6.47
2023-04-13T03:22:49.321Z,6.47
2023-04-13T03:25:16.014Z,6.44
2023-04-13T03:27:42.470Z,6.41
2023-04-13T03:30:09.443Z,6.43
2023-04-13T03:32:36.530Z,6.47
2023-04-13T03:35:06.432Z,6.40
2023-04-13T03:37:40.253Z,6.40
2023-04-13T03:40:10.298Z,6.44
2023-04-13T03:42:37.502Z,6.43
2023-04-13T03:45:05.020Z,6.44
2023-04-13T03:47:31.621Z,6.41
2023-04-13T03:49:58.216Z,6.43
2023-04-13T03:52:27.652Z,6.51
2023-04-13T03:54:54.266Z,6.53
2023-04-13T03:57:22.620Z,6.51
2023-04-13T03:59:49.134Z,6.60
2023-04-13T04:02:15.934Z,6.69
2023-04-13T04:04:43.013Z,6.69
2023-04-13T04:07:09.578Z,6.70
2023-04-13T04:09:36.037Z,6.68
2023-04-13T04:12:06.359Z,6.69
2023-04-13T04:14:32.840Z,6.74
2023-04-13T04:16:59.422Z,6.77
2023-04-13T04:19:25.980Z,6.80
2023-04-13T04:21:52.951Z,6.82
2023-04-13T04:24:27.445Z,6.79
2023-04-13T04:26:55.095Z,6.80
2023-04-13T04:29:22.330Z,6.83
2023-04-13T04:31:53.485Z,6.84
2023-04-13T04:34:20.371Z,6.83
2023-04-13T04:36:50.328Z,6.86
2023-04-13T04:39:22.018Z,6.84
2023-04-13T04:41:54.401Z,6.80
2023-04-13T04:44:25.072Z,6.81
2023-04-13T04:46:52.895Z,6.82
2023-04-13T04:49:21.907Z,6.81
2023-04-13T04:51:49.332Z,6.81
2023-04-13T04:54:17.068Z,6.77
2023-04-13T04:56:44.088Z,6.76
2023-04-13T04:59:10.616Z,6.74
2023-04-13T05:01:38.848Z,6.77
2023-04-13T05:04:06.213Z,6.78
2023-04-13T05:06:33.530Z,6.78
2023-04-13T05:09:01.990Z,6.76
2023-04-13T05:11:32.263Z,6.81
2023-04-13T05:13:59.080Z,6.93
2023-04-13T05:16:30.595Z,7.12
2023-04-13T05:18:57.564Z,7.28
2023-04-13T05:21:24.320Z,7.41
2023-04-13T05:23:50.995Z,7.36
2023-04-13T05:26:17.542Z,7.28
2023-04-13T05:28:44.015Z,7.32
2023-04-13T05:31:11.204Z,7.43
2023-04-13T05:33:38.137Z,7.42
2023-04-13T05:36:05.396Z,7.33
2023-04-13T05:38:31.887Z,7.26
2023-04-13T05:40:58.704Z,7.22
2023-04-13T05:43:25.209Z,7.18
2023-04-13T05:45:52.085Z,7.16
2023-04-13T05:48:18.874Z,7.36
2023-04-13T05:50:45.548Z,7.47
2023-04-13T05:53:12.638Z,7.57
2023-04-13T05:55:40.563Z,7.61
2023-04-13T05:58:08.639Z,7.52
2023-04-13T06:00:35.099Z,7.44
2023-04-13T06:03:02.373Z,7.38
2023-04-13T06:05:30.213Z,7.31
2023-04-13T06:07:56.751Z,7.26
2023-04-13T06:10:23.365Z,7.24
2023-04-13T06:12:50.540Z,7.20
2023-04-13T06:15:18.280Z,7.18
2023-04-13T06:17:44.751Z,7.13
2023-04-13T06:20:12.961Z,7.12
2023-04-13T06:22:39.392Z,7.14
2023-04-13T06:25:06.374Z,7.15
2023-04-13T06:27:36.259Z,7.15
2023-04-13T06:30:03.404Z,7.17
2023-04-13T06:32:29.896Z,7.23
2023-04-13T06:34:56.415Z,7.26
2023-04-13T06:37:23.599Z,7.33
2023-04-13T06:39:50.191Z,7.38
2023-04-13T06:42:18.344Z,7.48
2023-04-13T06:44:44.925Z,7.60
2023-04-13T06:47:11.377Z,7.68
2023-04-13T06:49:38.896Z,7.74
2023-04-13T06:52:05.373Z,7.78
2023-04-13T06:54:31.887Z,7.81
2023-04-13T06:56:58.445Z,7.82
2023-04-13T06:59:24.922Z,7.80
2023-04-13T07:01:51.541Z,7.80
2023-04-13T07:04:18.145Z,7.73
2023-04-13T07:06:44.698Z,7.69
2023-04-13T07:09:11.192Z,7.65
2023-04-13T07:11:37.746Z,7.69
2023-04-13T07:14:04.187Z,7.75
2023-04-13T07:16:30.764Z,7.82
2023-04-13T07:18:57.467Z,7.90
2023-04-13T07:21:24.160Z,7.89
2023-04-13T07:23:50.854Z,7.86
2023-04-13T07:26:18.348Z,7.85
2023-04-13T07:28:44.857Z,7.83
2023-04-13T07:31:11.837Z,7.84
2023-04-13T07:33:38.337Z,7.89
2023-04-13T07:36:05.386Z,7.93
2023-04-13T07:38:31.863Z,7.99
2023-04-13T07:40:58.476Z,8.04
2023-04-13T07:43:26.310Z,8.09
2023-04-13T07:45:52.821Z,8.15
2023-04-13T07:48:19.269Z,8.16
2023-04-13T07:50:46.794Z,8.18
2023-04-13T07:53:13.307Z,8.35
2023-04-13T07:55:39.772Z,8.71
2023-04-13T07:58:06.333Z,8.92
2023-04-13T08:00:32.838Z,8.92
2023-04-13T08:02:59.501Z,8.82
2023-04-13T08:05:26.091Z,8.75
2023-04-13T08:07:53.013Z,8.75
2023-04-13T08:10:19.646Z,8.76
2023-04-13T08:12:46.632Z,8.79
2023-04-13T08:15:13.300Z,8.87
2023-04-13T08:17:39.840Z,8.89
2023-04-13T08:20:09.619Z,8.81
2023-04-13T08:22:36.797Z,8.69
2023-04-13T08:25:05.382Z,8.83
2023-04-13T08:27:31.972Z,9.28
2023-04-13T08:30:01.810Z,9.65
2023-04-13T08:32:28.661Z,9.86
2023-04-13T08:34:56.074Z,10.02
2023-04-13T08:37:22.684Z,10.12
2023-04-13T08:39:49.274Z,10.30
2023-04-13T08:42:16.309Z,10.48
2023-04-13T08:44:43.071Z,10.66
2023-04-13T08:47:11.055Z,10.80
2023-04-13T08:49:39.365Z,10.90
2023-04-13T08:52:06.878Z,11.01
2023-04-13T08:54:35.139Z,11.09
2023-04-13T08:57:02.857Z,11.26
2023-04-13T08:59:30.545Z,11.37
2023-04-13T09:01:58.300Z,11.40
2023-04-13T09:04:31.870Z,11.14
2023-04-13T09:07:00.838Z,11.10
2023-04-13T09:09:27.560Z,10.64
2023-04-13T09:11:54.049Z,10.74
2023-04-13T09:14:20.666Z,11.00
2023-04-13T09:16:47.599Z,10.95
2023-04-13T09:19:16.826Z,11.27
2023-04-13T09:21:45.150Z,11.54
2023-04-13T09:24:12.712Z,11.61
2023-04-13T09:26:47.605Z,11.72
2023-04-13T09:29:18.924Z,11.42
2023-04-13T09:31:46.884Z,11.04
2023-04-13T09:34:14.848Z,10.60
2023-04-13T09:36:53.481Z,10.47
2023-04-13T09:39:28.809Z,10.98
2023-04-13T09:41:56.024Z,11.29
2023-04-13T09:44:28.562Z,11.75
2023-04-13T09:47:04.545Z,11.72
2023-04-13T09:49:42.033Z,11.75
2023-04-13T09:52:23.867Z,11.85
2023-04-13T09:54:55.631Z,11.97
2023-04-13T09:57:29.671Z,12.04
2023-04-13T10:00:00.633Z,12.16
2023-04-13T10:02:28.130Z,12.14
2023-04-13T10:04:55.906Z,12.16
2023-04-13T10:07:26.872Z,12.35
2023-04-13T10:09:54.426Z,12.41
2023-04-13T10:12:21.704Z,12.62
2023-04-13T10:14:49.230Z,12.94
2023-04-13T10:17:37.488Z,12.66
2023-04-13T10:20:12.715Z,12.18
2023-04-13T10:22:45.658Z,12.57
2023-04-13T10:25:29.177Z,12.80
2023-04-13T10:27:59.497Z,12.87
2023-04-13T10:30:26.984Z,12.78
2023-04-13T10:33:09.663Z,12.96
2023-04-13T10:35:42.943Z,12.22
2023-04-13T10:38:10.705Z,11.87
2023-04-13T10:40:47.726Z,12.30
2023-04-13T10:43:26.369Z,12.64
2023-04-13T10:46:08.881Z,12.79
2023-04-13T10:48:35.506Z,12.93
2023-04-13T10:51:02.551Z,13.08
2023-04-13T10:53:30.998Z,13.35
2023-04-13T10:55:57.889Z,13.50
2023-04-13T10:58:28.848Z,13.36
2023-04-13T11:00:56.449Z,13.10
2023-04-13T11:03:27.746Z,13.39
2023-04-13T11:05:59.463Z,13.52
2023-04-13T11:08:27.959Z,13.16
2023-04-13T11:10:56.333Z,12.59
2023-04-13T11:13:29.068Z,12.63
2023-04-13T11:16:05.928Z,12.85
2023-04-13T11:18:32.976Z,13.06
2023-04-13T11:20:59.687Z,13.04
2023-04-13T11:23:26.262Z,12.55
2023-04-13T11:26:01.298Z,12.24
2023-04-13T11:28:40.968Z,12.16
2023-04-13T11:31:08.185Z,12.41
2023-04-13T11:33:38.656Z,12.00
2023-04-13T11:36:07.802Z,11.54
2023-04-13T11:38:34.390Z,11.13
2023-04-13T11:41:14.996Z,11.26
2023-04-13T11:43:46.195Z,11.74
2023-04-13T11:46:15.153Z,12.39
2023-04-13T11:48:42.411Z,12.72
2023-04-13T11:51:09.850Z,13.01
2023-04-13T11:53:38.689Z,13.15
2023-04-13T11:56:08.460Z,12.94
2023-04-13T11:58:35.975Z,13.20
2023-04-13T12:01:14.419Z,13.35
2023-04-13T12:03:56.887Z,13.20
2023-04-13T12:06:29.055Z,12.63
2023-04-13T12:09:10.019Z,12.08
2023-04-13T12:11:43.953Z,11.65
2023-04-13T12:19:24.331Z,12.99
2023-04-13T12:21:56.147Z,13.31
2023-04-13T12:24:40.142Z,13.28
2023-04-13T12:27:16.941Z,13.24
2023-04-13T12:29:45.977Z,12.70
2023-04-13T12:32:16.770Z,12.81
2023-04-13T12:34:43.887Z,12.39
2023-04-13T12:37:12.053Z,12.11
2023-04-13T12:39:38.600Z,11.82
2023-04-13T12:42:05.400Z,11.57
2023-04-13T12:44:33.764Z,11.60
2023-04-13T12:47:01.151Z,11.96
2023-04-13T12:49:27.683Z,12.13
2023-04-13T12:51:54.296Z,12.27
2023-04-13T12:54:20.938Z,12.60
2023-04-13T12:56:47.508Z,12.95
2023-04-13T12:59:14.055Z,13.13
2023-04-13T13:01:40.756Z,13.19
2023-04-13T13:04:07.549Z,13.25
2023-04-13T13:06:34.452Z,13.24
2023-04-13T13:09:01.230Z,13.15
2023-04-13T13:11:28.402Z,12.92
2023-04-13T13:13:56.707Z,12.87
2023-04-13T13:16:23.381Z,13.15
2023-04-13T13:18:51.492Z,13.17
2023-04-13T13:21:19.450Z,12.81
2023-04-13T13:23:46.216Z,12.60
2023-04-13T13:26:24.089Z,12.47
2023-04-13T13:28:52.811Z,12.36
2023-04-13T13:31:19.635Z,12.40
2023-04-13T13:33:46.335Z,12.37
2023-04-13T13:36:14.212Z,12.23
2023-04-13T13:38:43.008Z,12.19
2023-04-13T13:41:09.818Z,12.23
2023-04-13T13:43:36.322Z,12.24
2023-04-13T13:46:05.327Z,12.24
2023-04-13T13:48:32.145Z,12.21
2023-04-13T13:50:58.600Z,12.23
2023-04-13T13:53:25.148Z,12.23
2023-04-13T13:55:52.808Z,12.19
2023-04-13T13:58:19.435Z,12.15
2023-04-13T14:00:46.070Z,12.19
2023-04-13T14:03:14.629Z,12.18
2023-04-13T14:05:43.071Z,12.50
2023-04-13T14:08:13.277Z,12.74
2023-04-13T14:10:41.551Z,12.86
2023-04-13T14:13:08.617Z,12.80
2023-04-13T14:15:35.211Z,12.65
2023-04-13T14:18:11.031Z,12.49
2023-04-13T14:20:39.412Z,12.37
2023-04-13T14:23:06.603Z,12.35
2023-04-13T14:25:33.174Z,12.36
2023-04-13T14:27:59.633Z,12.34
2023-04-13T14:30:27.786Z,12.27
2023-04-13T14:32:54.898Z,12.32
2023-04-13T14:35:21.655Z,12.26
2023-04-13T14:37:48.118Z,12.24
2023-04-13T14:40:17.041Z,12.15
2023-04-13T14:42:46.831Z,12.09
2023-04-13T14:45:13.833Z,12.07
2023-04-13T14:47:40.421Z,12.13
2023-04-13T14:50:08.365Z,12.25
2023-04-13T14:52:34.990Z,12.27
2023-04-13T14:55:01.600Z,12.30
2023-04-13T14:57:32.343Z,12.26
2023-04-13T14:59:58.956Z,12.17
2023-04-13T15:02:27.560Z,12.09
2023-04-13T15:04:54.723Z,11.98
2023-04-13T15:07:21.732Z,11.97
2023-04-13T15:09:48.950Z,12.07
2023-04-13T15:12:15.505Z,12.15
2023-04-13T15:14:46.539Z,12.25
2023-04-13T15:17:13.393Z,12.25
2023-04-13T15:19:39.969Z,12.23
2023-04-13T15:22:09.177Z,12.25
2023-04-13T15:24:38.658Z,12.25
2023-04-13T15:27:05.387Z,12.32
2023-04-13T15:29:31.942Z,12.35
2023-04-13T15:32:02.042Z,12.47
2023-04-13T15:34:28.640Z,12.53
2023-04-13T15:36:57.071Z,12.58
2023-04-13T15:39:23.544Z,12.57
2023-04-13T15:41:52.118Z,12.59
2023-04-13T15:44:20.148Z,12.62
2023-04-13T15:46:48.046Z,12.66
2023-04-13T15:49:14.619Z,12.62
2023-04-13T15:51:41.299Z,12.46
2023-04-13T15:54:07.738Z,12.36
2023-04-13T15:56:34.272Z,12.30
2023-04-13T15:59:01.031Z,12.28
2023-04-13T16:01:27.801Z,12.34
2023-04-13T16:03:55.822Z,12.35
2023-04-13T16:06:22.726Z,12.31
2023-04-13T16:08:49.262Z,12.23
2023-04-13T16:11:15.769Z,12.20
2023-04-13T16:13:49.460Z,12.23
2023-04-13T16:16:17.755Z,12.27
2023-04-13T16:18:44.325Z,12.31
2023-04-13T16:21:11.011Z,12.34
2023-04-13T16:23:38.188Z,12.33
2023-04-13T16:26:05.058Z,12.30
2023-04-13T16:28:31.608Z,12.24
2023-04-13T16:30:58.295Z,12.15
2023-04-13T16:33:24.844Z,12.06
2023-04-13T16:35:51.463Z,11.91
2023-04-13T16:38:17.942Z,11.79
2023-04-13T16:40:44.400Z,11.68
2023-04-13T16:43:10.903Z,11.60
2023-04-13T16:45:37.712Z,11.53
2023-04-13T16:48:08.207Z,11.46
2023-04-13T16:50:34.708Z,11.42
2023-04-13T16:53:01.276Z,11.43
2023-04-13T16:55:28.597Z,11.43
2023-04-13T16:57:55.917Z,11.42
2023-04-13T17:00:23.278Z,11.40
2023-04-13T17:02:50.320Z,11.38
2023-04-13T17:05:17.288Z,11.35
2023-04-13T17:07:44.689Z,11.32
2023-04-13T17:10:12.909Z,11.30
2023-04-13T17:12:39.964Z,11.33
2023-04-13T17:15:07.101Z,11.33
2023-04-13T17:17:36.212Z,11.29
2023-04-13T17:20:02.729Z,11.25
2023-04-13T17:22:29.289Z,11.25
2023-04-13T17:24:55.995Z,11.21
2023-04-13T17:27:25.677Z,11.18
2023-04-13T17:29:52.134Z,11.13
2023-04-13T17:32:21.846Z,11.06
2023-04-13T17:34:51.891Z,11.05
2023-04-13T17:37:18.519Z,11.01
2023-04-13T17:39:50.544Z,10.98
2023-04-13T17:42:17.863Z,10.94
2023-04-13T17:44:44.664Z,10.90
2023-04-13T17:47:11.147Z,10.86
2023-04-13T17:49:38.146Z,10.80
2023-04-13T17:52:04.696Z,10.76
2023-04-13T17:54:31.243Z,10.74
2023-04-13T17:56:57.696Z,10.72
2023-04-13T17:59:24.301Z,10.71
2023-04-13T18:01:53.997Z,10.64
2023-04-13T18:04:21.016Z,10.60
2023-04-13T18:06:56.380Z,10.57
2023-04-13T18:09:24.788Z,10.53
2023-04-13T18:11:51.232Z,10.48
2023-04-13T18:14:17.774Z,10.44
2023-04-13T18:16:44.307Z,10.39
2023-04-13T18:19:11.218Z,10.34
2023-04-13T18:21:37.724Z,10.32
2023-04-13T18:24:04.424Z,10.28
2023-04-13T18:26:30.987Z,10.28
2023-04-13T18:28:57.534Z,10.28
2023-04-13T18:31:24.024Z,10.24
2023-04-13T18:33:50.609Z,10.23
2023-04-13T18:36:18.237Z,10.20
2023-04-13T18:38:45.537Z,10.12
2023-04-13T18:41:12.144Z,10.05
2023-04-13T18:43:39.085Z,10.07
2023-04-13T18:46:05.930Z,10.11
2023-04-13T18:48:32.452Z,10.11
2023-04-13T18:51:00.069Z,10.07
2023-04-13T18:53:26.641Z,10.01
2023-04-13T18:55:53.282Z,9.98
2023-04-13T18:58:20.631Z,9.94
2023-04-13T19:00:48.100Z,9.93
2023-04-13T19:03:17.883Z,9.92
2023-04-13T19:05:44.451Z,9.92
2023-04-13T19:08:13.285Z,9.93
2023-04-13T19:10:39.874Z,9.92
2023-04-13T19:13:06.341Z,9.85
2023-04-13T19:15:33.133Z,9.89
2023-04-13T19:18:01.173Z,9.87
2023-04-13T19:20:29.852Z,9.84
2023-04-13T19:22:56.309Z,9.79
2023-04-13T19:25:22.854Z,9.80
2023-04-13T19:27:50.181Z,9.72
2023-04-13T19:30:18.365Z,9.62
2023-04-13T19:32:50.179Z,9.58
2023-04-13T19:35:17.420Z,9.57
2023-04-13T19:37:43.962Z,9.52
2023-04-13T19:40:13.516Z,9.51
2023-04-13T19:42:44.964Z,9.51
2023-04-13T19:45:13.425Z,9.46
2023-04-13T19:47:40.928Z,9.48
2023-04-13T19:50:13.138Z,9.43
2023-04-13T19:52:41.521Z,9.35
2023-04-13T19:55:10.502Z,9.32
2023-04-13T19:57:40.420Z,9.32
2023-04-13T20:00:20.142Z,9.27
2023-04-13T20:02:49.577Z,9.25
2023-04-13T20:05:17.769Z,9.16
2023-04-13T20:07:44.417Z,9.06
2023-04-13T20:10:12.261Z,9.05
2023-04-13T20:12:39.080Z,9.08
2023-04-13T20:15:06.761Z,9.14
2023-04-13T20:17:33.419Z,9.17
2023-04-13T20:20:00.163Z,9.17
2023-04-13T20:22:26.728Z,9.14
2023-04-13T20:24:53.176Z,9.14
2023-04-13T20:27:21.741Z,9.14
2023-04-13T20:29:49.425Z,9.11
2023-04-13T20:32:16.000Z,9.06
2023-04-13T20:34:43.319Z,9.04
2023-04-13T20:37:14.387Z,9.03
2023-04-13T20:39:50.695Z,9.00
2023-04-13T20:42:20.610Z,8.99
2023-04-13T20:44:47.159Z,8.98
2023-04-13T20:47:13.905Z,8.96
2023-04-13T20:49:46.808Z,8.98
2023-04-13T20:52:18.056Z,8.97
2023-04-13T20:54:44.542Z,8.94
2023-04-13T20:57:12.143Z,8.95
2023-04-13T20:59:38.677Z,8.89
2023-04-13T21:02:10.459Z,8.82
2023-04-13T21:04:37.676Z,8.82
2023-04-13T21:07:04.230Z,8.77
2023-04-13T21:09:30.674Z,8.76
2023-04-13T21:11:57.964Z,8.75
2023-04-13T21:14:25.435Z,8.71
2023-04-13T21:16:52.751Z,8.66
2023-04-13T21:19:19.536Z,8.64
2023-04-13T21:21:46.520Z,8.66
2023-04-13T21:24:13.334Z,8.64
2023-04-13T21:26:39.948Z,8.61
2023-04-13T21:29:07.615Z,8.59
2023-04-13T21:31:36.920Z,8.61
2023-04-13T21:34:06.093Z,8.58
2023-04-13T21:39:02.772Z,8.50
2023-04-13T21:41:29.461Z,8.53
2023-04-13T21:43:55.987Z,8.52
2023-04-13T21:46:22.440Z,8.52
2023-04-13T21:48:49.204Z,8.53
2023-04-13T21:51:15.776Z,8.56
2023-04-13T21:53:42.276Z,8.49
2023-04-13T21:56:08.835Z,8.42
2023-04-13T21:58:39.496Z,8.42
2023-04-13T22:01:07.114Z,8.43
2023-04-13T22:03:52.001Z,8.48
2023-04-13T22:06:18.601Z,8.50
2023-04-13T22:08:45.375Z,8.45
2023-04-13T22:11:11.894Z,8.40
2023-04-13T22:13:41.175Z,8.43
2023-04-13T22:16:08.483Z,8.43
2023-04-13T22:18:35.073Z,8.41
2023-04-13T22:21:01.563Z,8.42
2023-04-13T22:23:29.116Z,8.27
2023-04-13T22:26:01.575Z,8.18
2023-04-13T22:28:29.759Z,8.27
2023-04-13T22:30:56.556Z,8.26
2023-04-13T22:33:23.181Z,8.31
2023-04-13T22:35:52.569Z,8.37
2023-04-13T22:38:19.279Z,8.39
2023-04-13T22:40:45.835Z,8.44
2023-04-13T22:43:12.565Z,8.34
2023-04-13T22:45:39.003Z,8.12
2023-04-13T22:48:05.769Z,8.00
2023-04-13T22:50:32.299Z,7.95
2023-04-13T22:52:58.746Z,7.94
2023-04-13T22:55:25.325Z,7.94
2023-04-13T22:57:51.770Z,7.88
2023-04-13T23:00:20.691Z,7.78
2023-04-13T23:02:57.568Z,7.85
2023-04-13T23:05:24.529Z,7.99
2023-04-13T23:07:51.162Z,8.14
2023-04-13T23:10:17.999Z,8.21
2023-04-13T23:12:45.414Z,8.20
2023-04-13T23:15:12.595Z,8.23
2023-04-13T23:17:39.134Z,8.29
2023-04-13T23:20:24.595Z,8.30
2023-04-13T23:22:51.121Z,8.27
2023-04-13T23:25:21.029Z,8.29
2023-04-13T23:27:47.476Z,8.34
2023-04-13T23:30:14.164Z,8.39
2023-04-13T23:32:40.655Z,8.39
2023-04-13T23:35:07.961Z,8.40
2023-04-13T23:37:34.473Z,8.38
2023-04-13T23:40:00.966Z,8.41
2023-04-13T23:42:27.979Z,8.40
2023-04-13T23:44:54.493Z,8.39
2023-04-13T23:47:21.208Z,8.37
2023-04-13T23:49:47.847Z,8.28
2023-04-13T23:52:14.312Z,8.31
2023-04-13T23:54:41.020Z,8.35
2023-04-13T23:57:09.379Z,8.33
2023-04-13T23:59:36.057Z,8.35
